createdAt,value
2019-05-26T00:00:29.322Z,18.65
2019-05-26T00:03:05.443Z,18.63
2019-05-26T00:05:39.591Z,18.48
2019-05-26T00:08:11.606Z,18.35
2019-05-26T00:10:44.808Z,18.30
2019-05-26T00:13:19.107Z,18.18
2019-05-26T00:15:53.002Z,18.17
2019-05-26T00:18:25.055Z,18.17
2019-05-26T00:20:57.021Z,18.11
2019-05-26T00:23:28.995Z,18.11
2019-05-26T00:26:01.726Z,18.12
2019-05-26T00:28:34.754Z,18.15
2019-05-26T00:31:06.854Z,18.19
2019-05-26T00:33:39.886Z,18.14
2019-05-26T00:36:11.865Z,18.13
2019-05-26T00:38:43.866Z,18.13
2019-05-26T00:41:16.148Z,18.11
2019-05-26T00:43:48.224Z,17.99
2019-05-26T00:46:20.206Z,17.90
2019-05-26T00:48:52.196Z,17.93
2019-05-26T00:51:24.366Z,17.91
2019-05-26T00:53:56.438Z,17.92
2019-05-26T00:56:28.533Z,17.77
2019-05-26T00:59:01.354Z,17.64
2019-05-26T01:01:34.392Z,17.62
2019-05-26T01:04:08.978Z,17.61
2019-05-26T01:06:40.946Z,17.59
2019-05-26T01:09:14.646Z,17.55
2019-05-26T01:11:46.733Z,17.56
2019-05-26T01:14:20.358Z,17.58
2019-05-26T01:16:56.149Z,17.62
2019-05-26T01:19:28.563Z,17.60
2019-05-26T01:22:01.672Z,17.67
2019-05-26T01:24:33.649Z,17.68
2019-05-26T01:27:05.752Z,17.50
2019-05-26T01:29:37.735Z,17.19
2019-05-26T01:32:09.730Z,17.07
2019-05-26T01:34:42.185Z,16.98
2019-05-26T01:37:17.329Z,16.93
2019-05-26T01:39:52.849Z,16.89
2019-05-26T01:42:24.921Z,16.86
2019-05-26T01:44:56.924Z,16.90
2019-05-26T01:47:30.594Z,16.93
2019-05-26T01:50:02.603Z,17.02
2019-05-26T01:52:34.614Z,17.08
2019-05-26T01:55:06.872Z,17.10
2019-05-26T01:57:38.877Z,17.07
2019-05-26T02:00:11.431Z,16.88
2019-05-26T02:02:43.400Z,16.70
2019-05-26T02:05:15.578Z,16.55
2019-05-26T02:07:47.610Z,16.44
2019-05-26T02:10:20.334Z,16.36
2019-05-26T02:12:53.949Z,16.28
2019-05-26T02:15:26.479Z,16.27
2019-05-26T02:18:00.923Z,16.31
2019-05-26T02:20:32.981Z,16.33
2019-05-26T02:23:06.747Z,16.35
2019-05-26T02:25:38.904Z,16.33
2019-05-26T02:28:12.013Z,16.18
2019-05-26T02:30:44.031Z,16.20
2019-05-26T02:33:16.039Z,16.00
2019-05-26T02:35:49.650Z,15.84
2019-05-26T02:38:25.920Z,15.80
2019-05-26T02:40:57.351Z,15.70
2019-05-26T02:43:29.425Z,15.59
2019-05-26T02:46:01.416Z,15.48
2019-05-26T02:48:33.392Z,15.51
2019-05-26T02:51:08.517Z,15.48
2019-05-26T02:53:40.934Z,15.32
2019-05-26T02:56:13.202Z,15.33
2019-05-26T02:58:45.537Z,15.40
2019-05-26T03:01:17.668Z,15.45
2019-05-26T03:03:54.811Z,15.47
2019-05-26T03:06:28.883Z,15.52
2019-05-26T03:09:21.269Z,15.50
2019-05-26T03:11:38.435Z,15.53
2019-05-26T03:14:11.626Z,15.54
2019-05-26T03:16:46.959Z,15.57
2019-05-26T03:19:23.395Z,15.58
2019-05-26T03:21:59.844Z,15.60
2019-05-26T03:24:34.068Z,15.53
2019-05-26T03:27:07.424Z,15.52
2019-05-26T03:29:39.854Z,15.49
2019-05-26T03:32:12.858Z,15.40
2019-05-26T03:34:44.821Z,15.31
2019-05-26T03:37:16.768Z,15.25
2019-05-26T03:39:48.745Z,15.23
2019-05-26T03:42:20.721Z,15.24
2019-05-26T03:44:52.747Z,15.23
2019-05-26T03:47:24.762Z,15.17
2019-05-26T03:49:58.620Z,15.08
2019-05-26T03:52:31.064Z,14.97
2019-05-26T03:55:03.197Z,14.97
2019-05-26T03:57:36.841Z,14.81
2019-05-26T04:00:10.766Z,14.83
2019-05-26T04:02:42.767Z,14.86
2019-05-26T04:05:15.384Z,14.82
2019-05-26T04:07:47.333Z,14.78
2019-05-26T04:10:20.494Z,14.70
2019-05-26T04:12:52.400Z,14.61
2019-05-26T04:15:24.390Z,14.59
2019-05-26T04:17:58.206Z,14.55
2019-05-26T04:20:30.261Z,14.51
2019-05-26T04:23:02.213Z,14.48
2019-05-26T04:25:34.179Z,14.50
2019-05-26T04:28:06.619Z,14.41
2019-05-26T04:30:38.610Z,14.44
2019-05-26T04:33:10.602Z,14.42
2019-05-26T04:35:44.447Z,14.45
2019-05-26T04:38:16.487Z,14.48
2019-05-26T04:40:48.516Z,14.54
2019-05-26T04:43:20.552Z,14.62
2019-05-26T04:45:55.068Z,14.50
2019-05-26T04:48:29.724Z,14.47
2019-05-26T04:51:01.832Z,14.45
2019-05-26T04:53:33.805Z,14.35
2019-05-26T04:56:06.049Z,14.23
2019-05-26T04:58:38.109Z,14.09
2019-05-26T05:01:10.454Z,14.06
2019-05-26T05:03:43.438Z,14.10
2019-05-26T05:06:16.504Z,14.04
2019-05-26T05:08:48.444Z,13.96
2019-05-26T05:11:20.427Z,13.89
2019-05-26T05:13:52.853Z,13.95
2019-05-26T05:16:26.115Z,14.01
2019-05-26T05:18:58.078Z,14.07
2019-05-26T05:21:30.206Z,14.12
2019-05-26T05:24:02.597Z,14.13
2019-05-26T05:26:34.569Z,14.14
2019-05-26T05:29:06.626Z,14.10
2019-05-26T05:32:02.153Z,14.12
2019-05-26T05:34:34.127Z,14.19
2019-05-26T05:37:06.184Z,14.36
2019-05-26T05:39:38.129Z,14.49
2019-05-26T05:42:11.750Z,14.64
2019-05-26T05:44:43.713Z,14.75
2019-05-26T05:47:15.685Z,14.87
2019-05-26T05:49:47.645Z,15.02
2019-05-26T05:52:21.177Z,16.05
2019-05-26T05:54:53.142Z,17.94
2019-05-26T05:57:25.106Z,19.66
2019-05-26T05:59:58.057Z,21.14
2019-05-26T06:02:30.011Z,22.08
2019-05-26T06:05:02.105Z,22.84
2019-05-26T06:07:34.247Z,23.79
2019-05-26T06:10:07.914Z,24.17
2019-05-26T06:12:40.020Z,24.72
2019-05-26T06:15:15.704Z,24.54
2019-05-26T06:17:47.265Z,26.04
2019-05-26T06:20:19.694Z,27.19
2019-05-26T06:22:51.677Z,28.46
2019-05-26T06:25:23.756Z,29.69
2019-05-26T06:27:55.917Z,30.43
2019-05-26T06:30:33.779Z,31.53
2019-05-26T06:33:05.972Z,32.27
2019-05-26T06:35:38.828Z,31.51
2019-05-26T06:38:13.861Z,32.33
2019-05-26T06:40:45.927Z,31.99
2019-05-26T06:43:19.670Z,32.49
2019-05-26T06:45:51.785Z,32.12
2019-05-26T06:48:26.816Z,31.63
2019-05-26T06:50:59.898Z,32.60
2019-05-26T06:53:31.882Z,33.06
2019-05-26T06:56:04.393Z,33.29
2019-05-26T06:58:36.407Z,33.51
2019-05-26T07:01:10.053Z,34.16
2019-05-26T07:03:42.011Z,34.23
2019-05-26T07:06:14.074Z,34.74
2019-05-26T07:08:46.024Z,33.93
2019-05-26T07:11:18.037Z,33.51
2019-05-26T07:13:50.164Z,34.05
2019-05-26T07:16:36.733Z,34.46
2019-05-26T07:18:55.952Z,35.18
2019-05-26T07:21:29.758Z,36.92
2019-05-26T07:24:01.792Z,37.33
2019-05-26T07:26:33.906Z,37.06
2019-05-26T07:29:08.275Z,38.35
2019-05-26T07:31:42.521Z,39.17
2019-05-26T07:34:14.551Z,39.43
2019-05-26T07:36:46.526Z,40.84
2019-05-26T07:39:21.648Z,41.01
2019-05-26T07:42:09.420Z,39.56
2019-05-26T07:44:28.428Z,41.05
2019-05-26T07:47:02.916Z,41.72
2019-05-26T07:49:34.880Z,42.74
2019-05-26T07:52:06.946Z,42.34
2019-05-26T07:54:40.855Z,41.03
2019-05-26T07:57:12.855Z,40.94
2019-05-26T07:59:44.929Z,42.84
2019-05-26T08:02:16.949Z,42.32
2019-05-26T08:04:49.035Z,42.94
2019-05-26T08:07:23.201Z,44.56
2019-05-26T08:09:55.041Z,43.57
2019-05-26T08:12:30.433Z,43.90
2019-05-26T08:15:00.738Z,44.71
2019-05-26T08:17:35.234Z,45.92
2019-05-26T08:20:14.958Z,44.69
2019-05-26T08:22:46.947Z,45.35
2019-05-26T08:25:19.482Z,45.21
2019-05-26T08:27:51.489Z,41.29
2019-05-26T08:30:24.776Z,43.20
2019-05-26T08:32:58.002Z,43.01
2019-05-26T08:35:30.077Z,42.99
2019-05-26T08:38:03.121Z,40.69
2019-05-26T08:40:35.142Z,41.44
2019-05-26T08:43:07.567Z,42.95
2019-05-26T08:45:41.374Z,42.67
2019-05-26T08:48:13.644Z,40.47
2019-05-26T08:50:45.677Z,42.48
2019-05-26T08:53:17.753Z,42.68
2019-05-26T08:55:49.799Z,42.78
2019-05-26T08:58:22.185Z,40.37
2019-05-26T09:00:55.467Z,40.34
2019-05-26T09:03:27.428Z,40.89
2019-05-26T09:05:59.456Z,41.02
2019-05-26T09:08:33.068Z,42.63
2019-05-26T09:11:14.543Z,42.17
2019-05-26T09:13:52.505Z,43.03
2019-05-26T09:16:24.504Z,43.18
2019-05-26T09:18:56.679Z,43.45
2019-05-26T09:21:32.321Z,45.87
2019-05-26T09:24:04.455Z,46.34
2019-05-26T09:26:36.424Z,43.75
2019-05-26T09:29:08.611Z,42.81
2019-05-26T09:31:40.714Z,43.30
2019-05-26T09:34:12.774Z,45.30
2019-05-26T09:36:49.682Z,45.41
2019-05-26T09:39:22.509Z,45.61
2019-05-26T09:41:54.480Z,41.97
2019-05-26T09:44:26.541Z,44.13
2019-05-26T09:47:00.631Z,46.58
2019-05-26T09:49:32.702Z,46.54
2019-05-26T09:52:06.392Z,48.03
2019-05-26T09:54:42.555Z,49.28
2019-05-26T09:57:14.728Z,48.54
2019-05-26T09:59:46.728Z,49.25
2019-05-26T10:02:18.936Z,46.89
2019-05-26T10:04:54.504Z,44.69
2019-05-26T10:07:26.526Z,43.30
2019-05-26T10:09:58.560Z,42.88
2019-05-26T10:12:33.439Z,44.53
2019-05-26T10:15:05.994Z,44.73
2019-05-26T10:17:38.442Z,45.17
2019-05-26T10:20:11.243Z,43.75
2019-05-26T10:22:43.257Z,44.17
2019-05-26T10:25:15.509Z,46.75
2019-05-26T10:27:49.639Z,43.49
2019-05-26T10:30:21.915Z,45.25
2019-05-26T10:32:53.969Z,46.58
2019-05-26T10:35:27.261Z,47.73
2019-05-26T10:37:59.233Z,47.89
2019-05-26T10:40:31.442Z,46.62
2019-05-26T10:43:03.462Z,46.25
2019-05-26T10:45:36.071Z,48.48
2019-05-26T10:48:08.228Z,46.89
2019-05-26T10:50:40.178Z,45.64
2019-05-26T10:53:12.177Z,43.55
2019-05-26T10:55:44.149Z,43.02
2019-05-26T10:58:16.143Z,42.20
2019-05-26T11:00:48.329Z,42.35
2019-05-26T11:03:21.934Z,42.80
2019-05-26T11:05:53.931Z,43.53
2019-05-26T11:08:26.495Z,42.66
2019-05-26T11:10:58.617Z,41.65
2019-05-26T11:13:32.453Z,43.04
2019-05-26T11:16:04.731Z,44.57
2019-05-26T11:18:36.760Z,45.74
2019-05-26T11:21:12.098Z,46.23
2019-05-26T11:23:42.458Z,46.93
2019-05-26T11:26:14.490Z,47.29
2019-05-26T11:28:48.256Z,47.74
2019-05-26T11:31:20.341Z,46.99
2019-05-26T11:33:52.389Z,45.87
2019-05-26T11:36:24.426Z,44.96
2019-05-26T11:38:58.334Z,43.54
2019-05-26T11:41:30.395Z,41.05
2019-05-26T11:44:15.350Z,40.10
2019-05-26T11:46:36.172Z,37.78
2019-05-26T11:49:08.147Z,35.69
2019-05-26T11:51:42.683Z,35.37
2019-05-26T11:54:14.736Z,34.11
2019-05-26T11:56:48.610Z,33.60
2019-05-26T11:59:20.667Z,33.54
2019-05-26T12:01:52.736Z,33.72
2019-05-26T12:04:24.761Z,33.36
2019-05-26T12:06:59.682Z,32.49
2019-05-26T12:09:31.671Z,31.93
2019-05-26T12:12:05.624Z,31.98
2019-05-26T12:14:37.564Z,31.60
2019-05-26T12:17:12.106Z,31.41
2019-05-26T12:19:44.181Z,31.66
2019-05-26T12:22:16.175Z,31.47
2019-05-26T12:24:48.299Z,31.62
2019-05-26T12:27:20.314Z,32.03
2019-05-26T12:29:52.338Z,32.12
2019-05-26T12:32:24.368Z,32.01
2019-05-26T12:34:56.355Z,32.00
2019-05-26T12:37:28.375Z,31.93
2019-05-26T12:40:00.384Z,31.78
2019-05-26T12:42:35.447Z,31.70
2019-05-26T12:45:08.532Z,32.19
2019-05-26T12:47:40.777Z,32.17
2019-05-26T12:50:13.264Z,31.84
2019-05-26T12:52:45.397Z,31.90
2019-05-26T12:55:18.091Z,31.93
2019-05-26T12:57:50.115Z,32.10
2019-05-26T13:00:25.266Z,32.19
2019-05-26T13:02:58.552Z,31.93
2019-05-26T13:05:30.601Z,32.14
2019-05-26T13:08:02.580Z,32.48
2019-05-26T13:10:34.619Z,32.61
2019-05-26T13:13:06.646Z,32.93
2019-05-26T13:15:38.716Z,33.26
2019-05-26T13:18:10.868Z,33.25
2019-05-26T13:20:42.954Z,33.42
2019-05-26T13:23:14.922Z,33.63
2019-05-26T13:25:55.799Z,33.48
2019-05-26T13:28:27.776Z,33.05
2019-05-26T13:31:00.176Z,33.30
2019-05-26T13:33:32.194Z,33.70
2019-05-26T13:36:04.407Z,33.44
2019-05-26T13:38:36.501Z,33.50
2019-05-26T13:41:10.164Z,33.38
2019-05-26T13:43:42.196Z,33.70
2019-05-26T13:46:14.349Z,33.43
2019-05-26T13:48:47.472Z,33.60
2019-05-26T13:51:21.011Z,33.45
2019-05-26T13:53:52.971Z,33.16
2019-05-26T13:56:25.006Z,33.37
2019-05-26T13:58:57.022Z,33.43
2019-05-26T14:01:29.013Z,33.54
2019-05-26T14:04:02.938Z,33.61
2019-05-26T14:06:35.020Z,33.43
2019-05-26T14:09:10.046Z,33.48
2019-05-26T14:11:42.321Z,33.36
2019-05-26T14:14:14.305Z,33.21
2019-05-26T14:16:47.950Z,33.06
2019-05-26T14:19:21.640Z,33.11
2019-05-26T14:21:53.750Z,32.75
2019-05-26T14:24:25.741Z,32.64
2019-05-26T14:26:57.960Z,32.66
2019-05-26T14:29:31.797Z,32.84
2019-05-26T14:32:03.907Z,32.64
2019-05-26T14:34:36.012Z,33.06
2019-05-26T14:37:07.963Z,32.54
2019-05-26T14:39:40.010Z,32.61
2019-05-26T14:42:12.346Z,32.84
2019-05-26T14:44:45.155Z,32.24
2019-05-26T14:47:17.261Z,32.40
2019-05-26T14:49:52.351Z,32.65
2019-05-26T14:52:24.389Z,32.65
2019-05-26T14:54:57.272Z,32.59
2019-05-26T14:57:31.006Z,32.44
2019-05-26T15:00:03.211Z,32.43
2019-05-26T15:02:35.498Z,32.29
2019-05-26T15:05:09.687Z,32.21
2019-05-26T15:07:41.677Z,32.28
2019-05-26T15:10:17.142Z,32.27
2019-05-26T15:12:49.093Z,32.25
2019-05-26T15:15:21.286Z,32.32
2019-05-26T15:17:53.675Z,32.30
2019-05-26T15:20:25.724Z,32.11
2019-05-26T15:22:57.777Z,32.11
2019-05-26T15:25:29.808Z,32.36
2019-05-26T15:28:02.024Z,32.43
2019-05-26T15:30:36.893Z,32.21
2019-05-26T15:33:09.034Z,31.90
2019-05-26T15:35:45.021Z,32.01
2019-05-26T15:38:17.159Z,31.77
2019-05-26T15:40:50.550Z,31.84
2019-05-26T15:43:22.835Z,31.81
2019-05-26T15:45:54.901Z,31.74
2019-05-26T15:48:26.898Z,31.73
2019-05-26T15:50:58.991Z,31.83
2019-05-26T15:53:32.034Z,31.75
2019-05-26T15:56:05.802Z,31.87
2019-05-26T15:58:37.787Z,31.76
2019-05-26T16:01:10.326Z,31.73
2019-05-26T16:03:45.246Z,31.48
2019-05-26T16:06:18.517Z,31.64
2019-05-26T16:08:50.533Z,31.38
2019-05-26T16:11:22.581Z,31.41
2019-05-26T16:13:56.227Z,31.46
2019-05-26T16:16:40.539Z,31.12
2019-05-26T16:19:04.610Z,30.94
2019-05-26T16:21:38.828Z,30.92
2019-05-26T16:24:10.853Z,30.87
2019-05-26T16:26:43.076Z,30.92
2019-05-26T16:29:16.698Z,30.44
2019-05-26T16:31:49.044Z,30.49
2019-05-26T16:34:22.391Z,30.43
2019-05-26T16:36:54.492Z,30.62
2019-05-26T16:39:36.643Z,30.53
2019-05-26T16:42:02.575Z,30.11
2019-05-26T16:44:34.856Z,30.16
2019-05-26T16:47:08.681Z,30.00
2019-05-26T16:49:41.567Z,30.11
2019-05-26T16:52:13.704Z,30.16
2019-05-26T16:54:45.763Z,30.06
2019-05-26T16:57:17.847Z,29.84
2019-05-26T16:59:50.362Z,29.66
2019-05-26T17:02:22.465Z,29.54
2019-05-26T17:04:56.222Z,29.59
2019-05-26T17:07:28.392Z,29.52
2019-05-26T17:10:00.521Z,29.66
2019-05-26T17:12:32.591Z,29.45
2019-05-26T17:15:04.888Z,29.34
2019-05-26T17:17:37.010Z,29.30
2019-05-26T17:20:10.359Z,29.25
2019-05-26T17:22:42.509Z,29.35
2019-05-26T17:25:14.527Z,29.17
2019-05-26T17:27:47.650Z,29.17
2019-05-26T17:30:22.266Z,28.92
2019-05-26T17:32:54.511Z,29.01
2019-05-26T17:35:26.542Z,28.73
2019-05-26T17:37:59.051Z,29.10
2019-05-26T17:40:32.339Z,28.85
2019-05-26T17:43:04.543Z,28.97
2019-05-26T17:45:38.249Z,28.97
2019-05-26T17:48:11.213Z,28.99
2019-05-26T17:50:43.486Z,28.48
2019-05-26T17:53:15.984Z,28.50
2019-05-26T17:55:49.680Z,28.39
2019-05-26T17:58:23.081Z,28.28
2019-05-26T18:00:55.164Z,28.46
2019-05-26T18:03:27.143Z,28.53
2019-05-26T18:05:59.231Z,28.50
2019-05-26T18:08:36.303Z,28.60
2019-05-26T18:11:07.341Z,28.33
2019-05-26T18:13:39.498Z,28.40
2019-05-26T18:16:12.070Z,28.51
2019-05-26T18:18:45.721Z,28.58
2019-05-26T18:21:22.707Z,28.52
2019-05-26T18:23:54.817Z,28.52
2019-05-26T18:26:26.813Z,28.43
2019-05-26T18:28:58.851Z,28.29
2019-05-26T18:31:30.929Z,28.20
2019-05-26T18:34:03.056Z,28.27
2019-05-26T18:36:36.323Z,28.16
2019-05-26T18:39:09.985Z,28.27
2019-05-26T18:41:43.991Z,28.17
2019-05-26T18:44:16.023Z,27.97
2019-05-26T18:46:48.088Z,27.86
2019-05-26T18:49:20.105Z,27.59
2019-05-26T18:51:54.475Z,27.54
2019-05-26T18:54:26.563Z,27.16
2019-05-26T18:56:59.811Z,27.10
2019-05-26T18:59:31.775Z,27.02
2019-05-26T19:02:03.788Z,26.80
2019-05-26T19:04:35.900Z,26.73
2019-05-26T19:07:08.179Z,26.73
2019-05-26T19:09:40.659Z,26.73
2019-05-26T19:12:12.914Z,26.63
2019-05-26T19:14:45.031Z,26.61
2019-05-26T19:17:17.294Z,26.56
2019-05-26T19:19:49.314Z,26.50
2019-05-26T19:22:23.277Z,26.31
2019-05-26T19:24:55.417Z,26.09
2019-05-26T19:27:27.559Z,25.73
2019-05-26T19:29:59.601Z,25.50
2019-05-26T19:32:31.640Z,25.39
2019-05-26T19:35:04.309Z,25.25
2019-05-26T19:37:36.537Z,25.13
2019-05-26T19:40:10.136Z,25.00
2019-05-26T19:42:42.371Z,24.89
2019-05-26T19:45:15.033Z,24.64
2019-05-26T19:47:47.089Z,24.47
2019-05-26T19:50:20.827Z,24.36
2019-05-26T19:52:54.441Z,24.18
2019-05-26T19:55:30.877Z,23.99
2019-05-26T19:58:02.868Z,23.80
2019-05-26T20:00:40.445Z,23.69
2019-05-26T23:19:18.012Z,18.43
2019-05-26T23:21:37.821Z,18.38
2019-05-26T23:24:09.796Z,18.32
2019-05-26T23:26:41.767Z,18.32
2019-05-26T23:29:13.767Z,18.32
2019-05-26T23:31:45.725Z,18.29
2019-05-26T23:34:17.675Z,18.24
2019-05-26T23:36:56.107Z,18.24
2019-05-26T23:39:28.542Z,18.25
2019-05-26T23:42:00.553Z,18.21
2019-05-26T23:44:32.964Z,18.20
2019-05-26T23:47:12.337Z,18.24
2019-05-26T23:49:44.333Z,18.22
2019-05-26T23:52:19.310Z,18.15
2019-05-26T23:54:52.056Z,18.19
2019-05-26T23:57:23.993Z,18.11
2019-05-26T23:59:56.016Z,18.12
